Time;durP1;ratioP1;P1;durP2;ratioP2;P2;SDS_P1;SDS_P2;PMS_P1;PMS_P2;Temp;Humidity;BMP_temperature;BMP_pressure;BME280_temperature;BME280_humidity;BME280_pressure;Samples;Min_cycle;Max_cycle;Signal;HPM_P1;HPM_P2
2022/07/25 00:00:34;;;;;;;6.35;3.78;;;22.00;99.90;;;;;;4974913;28;20114;-72
2022/07/25 00:03:00;;;;;;;8.77;4.35;;;22.00;99.90;;;;;;4956979;28;20360;-74
2022/07/25 00:05:26;;;;;;;13.80;4.35;;;22.00;99.90;;;;;;4974795;28;20032;-74
2022/07/25 00:07:52;;;;;;;8.60;4.28;;;21.90;99.90;;;;;;4973974;28;20043;-74
2022/07/25 00:10:18;;;;;;;6.82;3.20;;;21.90;99.90;;;;;;4974538;28;20054;-73
2022/07/25 00:12:44;;;;;;;5.45;3.60;;;21.90;99.90;;;;;;4974235;28;20459;-73
2022/07/25 00:15:19;;;;;;;5.78;3.72;;;21.90;99.90;;;;;;4974358;28;20062;-73
2022/07/25 00:17:45;;;;;;;7.13;3.10;;;21.80;99.90;;;;;;4973714;28;20081;-73
2022/07/25 00:20:11;;;;;;;6.88;4.15;;;21.80;99.90;;;;;;4973935;28;20026;-73
2022/07/25 00:22:36;;;;;;;7.93;3.90;;;21.80;99.90;;;;;;4974783;28;20030;-73
2022/07/25 00:25:02;;;;;;;8.30;4.20;;;21.80;99.90;;;;;;4956575;28;20035;-73
2022/07/25 00:27:28;;;;;;;7.25;4.00;;;21.70;99.90;;;;;;4973587;28;20033;-73
2022/07/25 00:29:54;;;;;;;6.45;3.30;;;21.70;99.90;;;;;;4974547;28;20383;-74
2022/07/25 00:32:20;;;;;;;7.15;3.42;;;21.70;99.90;;;;;;4974124;28;20115;-73
2022/07/25 00:34:45;;;;;;;4.45;3.22;;;21.60;99.90;;;;;;4974280;28;20062;-74
2022/07/25 00:37:11;;;;;;;7.00;4.03;;;21.60;99.90;;;;;;4973321;28;20031;-75
2022/07/25 00:39:36;;;;;;;5.68;3.67;;;21.60;99.90;;;;;;4974057;28;20058;-73
2022/07/25 00:42:02;;;;;;;7.63;4.15;;;21.60;99.90;;;;;;4956147;28;20028;-74
2022/07/25 00:44:31;;;;;;;5.80;3.10;;;21.60;99.90;;;;;;4955738;28;20078;-73
2022/07/25 00:46:57;;;;;;;5.97;4.25;;;21.60;99.90;;;;;;4974161;28;20031;-73
2022/07/25 00:49:23;;;;;;;6.15;3.90;;;21.50;99.90;;;;;;4973705;28;20074;-74
2022/07/25 00:51:50;;;;;;;8.98;4.38;;;21.50;99.90;;;;;;4973625;28;20086;-74
2022/07/25 00:54:16;;;;;;;8.55;3.95;;;21.50;99.90;;;;;;4973794;28;20023;-73
2022/07/25 00:56:42;;;;;;;5.25;3.70;;;21.40;99.90;;;;;;4973344;28;20070;-74
2022/07/25 00:59:08;;;;;;;11.88;4.68;;;21.50;99.90;;;;;;4972744;28;20030;-74
2022/07/25 01:01:34;;;;;;;5.55;3.92;;;21.40;99.90;;;;;;4973750;28;20053;-74
2022/07/25 01:04:00;;;;;;;5.18;3.60;;;21.30;99.90;;;;;;4973191;28;20054;-75
2022/07/25 01:06:26;;;;;;;6.25;3.92;;;21.30;99.90;;;;;;4973392;28;20018;-74
2022/07/25 01:08:53;;;;;;;6.78;3.90;;;21.30;99.90;;;;;;4956127;28;20039;-73
2022/07/25 01:11:19;;;;;;;6.45;3.85;;;21.30;99.90;;;;;;4974410;28;20106;-74
2022/07/25 01:13:45;;;;;;;7.95;4.32;;;21.20;99.90;;;;;;4973514;28;20131;-74
2022/07/25 01:16:10;;;;;;;5.25;3.75;;;21.20;99.90;;;;;;4974707;28;20118;-73
2022/07/25 01:18:37;;;;;;;9.48;3.97;;;21.20;99.90;;;;;;4973233;28;20045;-74
2022/07/25 01:21:03;;;;;;;8.48;4.05;;;21.20;99.90;;;;;;4972724;28;20024;-73
2022/07/25 01:23:29;;;;;;;6.32;3.60;;;21.10;99.90;;;;;;4973120;28;20035;-73
2022/07/25 01:25:54;;;;;;;5.93;3.55;;;21.10;99.90;;;;;;4973634;28;20100;-74
2022/07/25 01:28:23;;;;;;;11.77;3.63;;;21.10;99.90;;;;;;4972793;28;20040;-74
2022/07/25 01:30:49;;;;;;;12.63;4.40;;;21.00;99.90;;;;;;4972766;28;20480;-74
2022/07/25 01:33:17;;;;;;;7.88;3.67;;;21.00;99.90;;;;;;4972414;28;20039;-73
2022/07/25 01:35:43;;;;;;;7.00;4.13;;;21.00;99.90;;;;;;4972119;28;20038;-74
2022/07/25 01:38:13;;;;;;;11.38;4.35;;;20.90;99.90;;;;;;4955782;28;20114;-75
2022/07/25 01:40:40;;;;;;;5.93;3.58;;;20.90;99.90;;;;;;4973074;28;20031;-74
2022/07/25 01:43:06;;;;;;;7.20;4.07;;;20.90;99.90;;;;;;4972577;28;20420;-73
2022/07/25 01:45:31;;;;;;;5.32;3.47;;;20.90;99.90;;;;;;4973076;28;20111;-73
2022/07/25 01:47:57;;;;;;;9.18;4.22;;;20.80;99.90;;;;;;4971761;28;20090;-73
2022/07/25 01:50:23;;;;;;;10.13;3.60;;;20.90;99.90;;;;;;4973162;28;20063;-73
2022/07/25 01:52:49;;;;;;;8.75;3.83;;;20.80;99.90;;;;;;4972756;28;20039;-74
2022/07/25 01:55:15;;;;;;;10.52;4.30;;;20.80;99.90;;;;;;4973173;28;20027;-73
2022/07/25 01:57:41;;;;;;;6.55;4.00;;;20.80;99.90;;;;;;4972946;28;20027;-73
2022/07/25 02:00:10;;;;;;;5.40;3.78;;;20.90;99.90;;;;;;4972170;28;21408;-74
2022/07/25 02:02:35;;;;;;;5.30;3.78;;;20.80;99.90;;;;;;4972605;28;20068;-73
2022/07/25 02:05:01;;;;;;;5.38;3.60;;;20.80;99.90;;;;;;4972789;28;20039;-74
2022/07/25 02:07:27;;;;;;;8.45;3.38;;;20.80;99.90;;;;;;4972280;28;20021;-73
2022/07/25 02:09:52;;;;;;;6.57;3.30;;;20.80;99.90;;;;;;4972591;28;20073;-74
2022/07/25 02:12:18;;;;;;;4.60;2.67;;;20.70;99.90;;;;;;4972463;28;20039;-73
2022/07/25 02:14:43;;;;;;;7.57;3.45;;;20.70;99.90;;;;;;4972894;28;20121;-74
2022/07/25 02:17:09;;;;;;;8.32;3.85;;;20.60;99.90;;;;;;4954734;28;20016;-73
2022/07/25 02:19:35;;;;;;;7.28;3.92;;;20.60;99.90;;;;;;4972662;28;20054;-74
2022/07/25 02:22:01;;;;;;;8.85;4.35;;;20.60;99.90;;;;;;4972306;28;20078;-74
2022/07/25 02:24:27;;;;;;;8.80;4.15;;;20.60;99.90;;;;;;4972207;28;20035;-74
2022/07/25 02:26:52;;;;;;;7.05;3.95;;;20.50;99.90;;;;;;4972482;28;20034;-74
2022/07/25 02:29:18;;;;;;;19.77;4.13;;;20.50;99.90;;;;;;4972203;28;20042;-74
2022/07/25 02:31:43;;;;;;;9.35;4.75;;;20.60;99.90;;;;;;4972465;28;20030;-74
2022/07/25 02:34:09;;;;;;;6.68;3.83;;;20.50;99.90;;;;;;4972450;28;20046;-74
2022/07/25 02:36:35;;;;;;;9.63;4.57;;;20.50;99.90;;;;;;4954850;28;20035;-73
2022/07/25 02:39:00;;;;;;;6.38;3.80;;;20.40;99.90;;;;;;4972466;28;20468;-74
2022/07/25 02:41:26;;;;;;;8.73;4.53;;;20.50;99.90;;;;;;4972153;28;20054;-75
2022/07/25 02:43:51;;;;;;;8.82;3.67;;;20.50;99.90;;;;;;4971794;28;20035;-74
2022/07/25 02:46:18;;;;;;;6.00;3.53;;;20.40;99.90;;;;;;4972395;28;20043;-74
2022/07/25 02:48:43;;;;;;;9.35;4.32;;;20.50;99.90;;;;;;4971544;28;20059;-74
2022/07/25 02:51:09;;;;;;;8.43;4.32;;;20.40;99.90;;;;;;4972008;28;20019;-74
2022/07/25 02:53:34;;;;;;;7.10;4.05;;;20.40;99.90;;;;;;4972168;28;20019;-74
2022/07/25 02:56:00;;;;;;;6.40;3.65;;;20.40;99.90;;;;;;4972380;28;20031;-73
2022/07/25 02:58:26;;;;;;;7.47;4.13;;;20.40;99.90;;;;;;4972256;28;20027;-74
2022/07/25 03:00:52;;;;;;;5.85;3.05;;;20.40;99.90;;;;;;4976077;28;20023;-74
2022/07/25 03:03:18;;;;;;;10.80;4.47;;;20.40;99.90;;;;;;4975863;28;20408;-74
2022/07/25 03:05:44;;;;;;;10.07;5.03;;;20.40;99.90;;;;;;4975728;28;20113;-74
2022/07/25 03:08:09;;;;;;;9.55;4.22;;;20.40;99.90;;;;;;4975765;28;20526;-74
2022/07/25 03:10:35;;;;;;;4.45;3.58;;;20.50;99.90;;;;;;4975562;28;20058;-74
2022/07/25 03:13:01;;;;;;;5.15;3.47;;;20.40;99.90;;;;;;4957710;28;20043;-74
2022/07/25 03:15:27;;;;;;;8.38;3.63;;;20.40;99.90;;;;;;4958182;28;20023;-73
2022/07/25 03:17:52;;;;;;;5.93;3.33;;;20.30;99.90;;;;;;4974979;28;20038;-73
2022/07/25 03:20:18;;;;;;;8.65;4.50;;;20.30;99.90;;;;;;4957652;28;20043;-74
2022/07/25 03:22:44;;;;;;;6.45;3.40;;;20.20;99.90;;;;;;4975647;28;20860;-73
2022/07/25 03:25:09;;;;;;;10.57;4.07;;;20.30;99.90;;;;;;4958063;28;20016;-74
2022/07/25 03:27:35;;;;;;;5.32;3.97;;;20.30;99.90;;;;;;4975198;28;20077;-73
2022/07/25 03:30:00;;;;;;;8.27;3.72;;;20.30;99.90;;;;;;4975352;28;20081;-74
2022/07/25 03:32:26;;;;;;;6.30;4.10;;;20.30;99.90;;;;;;4975258;28;20028;-73
2022/07/25 03:34:52;;;;;;;7.97;4.10;;;20.20;99.90;;;;;;4974709;28;20380;-75
2022/07/25 03:37:18;;;;;;;7.63;3.72;;;20.20;99.90;;;;;;4975979;28;20098;-74
2022/07/25 03:39:44;;;;;;;6.50;3.97;;;20.20;99.90;;;;;;4975083;28;20487;-73
2022/07/25 03:42:10;;;;;;;7.18;3.92;;;20.20;99.90;;;;;;4957545;28;20031;-73
2022/07/25 03:44:36;;;;;;;11.07;3.45;;;20.20;99.90;;;;;;4975138;28;20041;-74
2022/07/25 03:47:03;;;;;;;6.55;3.50;;;20.20;99.90;;;;;;4974464;28;20086;-74
2022/07/25 03:49:28;;;;;;;8.65;4.57;;;20.20;99.90;;;;;;4974586;28;20043;-73
2022/07/25 03:51:54;;;;;;;6.25;4.35;;;20.20;99.90;;;;;;4975107;28;20400;-74
2022/07/25 03:54:20;;;;;;;5.68;3.75;;;20.20;99.90;;;;;;4974609;28;20027;-77
2022/07/25 03:56:48;;;;;;;11.43;3.72;;;20.20;99.90;;;;;;4974939;28;20019;-74
2022/07/25 03:59:17;;;;;;;7.82;3.70;;;20.10;99.90;;;;;;4974800;28;20027;-74
2022/07/25 04:01:48;;;;;;;7.30;3.58;;;20.20;99.90;;;;;;4974393;28;20111;-74
2022/07/25 04:04:14;;;;;;;7.00;3.95;;;20.10;99.90;;;;;;4975193;28;20750;-74
2022/07/25 04:06:40;;;;;;;6.90;3.53;;;20.10;99.90;;;;;;4956934;28;20023;-74
2022/07/25 04:09:07;;;;;;;7.90;3.15;;;20.10;99.90;;;;;;4974615;28;20035;-74
2022/07/25 04:11:34;;;;;;;4.95;3.45;;;20.10;99.90;;;;;;4974197;28;20038;-73
2022/07/25 04:14:01;;;;;;;7.38;3.53;;;20.10;99.90;;;;;;4974152;28;20039;-75
2022/07/25 04:16:28;;;;;;;6.82;3.53;;;20.20;99.90;;;;;;4956532;28;20035;-74
2022/07/25 04:18:53;;;;;;;6.60;4.00;;;20.20;99.90;;;;;;4974458;28;20028;-74
2022/07/25 04:21:19;;;;;;;6.35;3.58;;;20.20;99.90;;;;;;4956160;28;20021;-72
2022/07/25 04:23:45;;;;;;;6.88;3.15;;;20.20;99.90;;;;;;4958062;28;20150;-72
2022/07/25 04:26:11;;;;;;;8.75;4.63;;;20.20;99.90;;;;;;4956883;28;20054;-73
2022/07/25 04:28:36;;;;;;;6.80;3.75;;;20.20;99.90;;;;;;4973863;28;20031;-73
2022/07/25 04:31:02;;;;;;;5.00;2.90;;;20.20;99.90;;;;;;4973935;28;20031;-74
2022/07/25 04:33:28;;;;;;;9.73;3.25;;;20.20;99.90;;;;;;4974233;28;20066;-73
2022/07/25 04:35:53;;;;;;;7.20;3.88;;;20.20;99.90;;;;;;4974071;28;20126;-73
2022/07/25 04:38:19;;;;;;;7.93;4.13;;;20.20;99.90;;;;;;4974296;28;20031;-73
2022/07/25 04:40:48;;;;;;;8.20;4.18;;;20.20;99.90;;;;;;4973589;28;20027;-74
2022/07/25 04:43:13;;;;;;;8.18;3.40;;;20.20;99.90;;;;;;4973173;28;20030;-74
2022/07/25 04:45:39;;;;;;;5.43;3.22;;;20.30;99.90;;;;;;4973564;28;20027;-73
2022/07/25 04:48:05;;;;;;;5.85;3.17;;;20.20;99.90;;;;;;4974602;28;20043;-73
2022/07/25 04:50:30;;;;;;;6.32;3.22;;;20.20;99.90;;;;;;4974947;28;20034;-74
2022/07/25 04:52:56;;;;;;;4.82;3.55;;;20.20;99.90;;;;;;4974550;28;20035;-73
2022/07/25 04:55:22;;;;;;;12.13;4.07;;;20.30;99.90;;;;;;4975520;28;20038;-73
2022/07/25 04:57:48;;;;;;;8.00;4.43;;;20.30;99.90;;;;;;4974702;28;20045;-72
2022/07/25 05:00:13;;;;;;;5.20;3.35;;;20.30;99.90;;;;;;4973973;28;20034;-73
2022/07/25 05:02:40;;;;;;;10.23;3.50;;;20.30;99.90;;;;;;4973077;28;20023;-74
2022/07/25 05:05:07;;;;;;;6.70;3.45;;;20.30;99.90;;;;;;4973049;28;20031;-73
2022/07/25 05:07:33;;;;;;;5.72;3.10;;;20.30;99.90;;;;;;4974287;28;20023;-73
2022/07/25 05:09:59;;;;;;;8.15;3.88;;;20.40;99.90;;;;;;4973293;28;20019;-72
2022/07/25 05:12:24;;;;;;;6.28;3.38;;;20.40;99.90;;;;;;4973086;28;20062;-73
2022/07/25 05:14:50;;;;;;;6.13;3.15;;;20.50;99.90;;;;;;4975520;28;20042;-73
2022/07/25 05:17:16;;;;;;;6.07;3.55;;;20.50;99.90;;;;;;4973556;28;20041;-73
2022/07/25 05:19:42;;;;;;;6.28;3.70;;;20.60;99.90;;;;;;4972926;28;20090;-72
2022/07/25 05:22:07;;;;;;;8.45;3.55;;;20.60;99.90;;;;;;4973865;28;20028;-73
2022/07/25 05:24:34;;;;;;;7.03;3.33;;;20.60;99.90;;;;;;4955480;28;20027;-73
2022/07/25 05:26:59;;;;;;;10.88;3.33;;;20.60;99.90;;;;;;4955282;28;20482;-73
2022/07/25 05:29:26;;;;;;;6.28;3.55;;;20.60;99.90;;;;;;4973318;28;20042;-74
2022/07/25 05:31:51;;;;;;;6.35;3.63;;;20.70;99.90;;;;;;4973576;28;20027;-73
2022/07/25 05:34:17;;;;;;;10.18;3.47;;;20.80;99.90;;;;;;4956165;28;20042;-73
2022/07/25 05:36:42;;;;;;;7.28;4.18;;;20.80;99.90;;;;;;4972420;28;20570;-75
2022/07/25 05:39:08;;;;;;;5.78;3.15;;;20.80;99.90;;;;;;4973142;28;20027;-74
2022/07/25 05:41:34;;;;;;;15.52;4.22;;;20.90;99.90;;;;;;4955292;28;20030;-74
2022/07/25 05:43:59;;;;;;;6.75;3.88;;;20.90;99.90;;;;;;4955720;28;20031;-73
2022/07/25 05:46:25;;;;;;;14.05;4.28;;;20.90;99.90;;;;;;4956704;28;20399;-73
2022/07/25 05:48:50;;;;;;;5.10;3.60;;;21.00;99.90;;;;;;4973185;28;20053;-73
2022/07/25 05:51:16;;;;;;;4.38;2.95;;;21.00;99.90;;;;;;4973642;28;20030;-73
2022/07/25 05:53:41;;;;;;;5.40;3.38;;;21.20;99.90;;;;;;4972719;28;20066;-73
2022/07/25 05:56:08;;;;;;;5.22;3.28;;;21.20;99.90;;;;;;4973749;28;20034;-72
2022/07/25 05:58:36;;;;;;;5.43;3.15;;;21.30;99.90;;;;;;4972614;28;20018;-71
2022/07/25 06:01:01;;;;;;;5.53;3.08;;;21.40;99.90;;;;;;4972839;28;20161;-71
2022/07/25 06:03:27;;;;;;;6.13;3.28;;;21.50;99.90;;;;;;4956174;28;20027;-72
2022/07/25 06:05:55;;;;;;;7.70;3.03;;;21.50;99.90;;;;;;4972644;28;20035;-73
2022/07/25 06:08:20;;;;;;;7.10;3.13;;;21.60;99.90;;;;;;4955565;28;20427;-73
2022/07/25 06:10:46;;;;;;;13.40;2.55;;;21.60;99.90;;;;;;4974872;28;20031;-72
2022/07/25 06:13:11;;;;;;;6.45;2.55;;;21.70;99.90;;;;;;4972713;28;20066;-72
2022/07/25 06:15:37;;;;;;;4.32;2.75;;;21.80;99.90;;;;;;4974372;28;20054;-73
2022/07/25 06:18:03;;;;;;;5.45;3.03;;;21.90;99.90;;;;;;4957031;28;20471;-72
2022/07/25 06:20:28;;;;;;;5.03;2.92;;;21.90;99.90;;;;;;4954975;28;20027;-72
2022/07/25 06:22:54;;;;;;;5.05;3.28;;;22.00;99.90;;;;;;4972961;28;20038;-72
2022/07/25 06:25:20;;;;;;;7.00;2.10;;;22.10;99.90;;;;;;4971986;28;20026;-73
2022/07/25 06:27:46;;;;;;;3.80;2.80;;;22.10;99.90;;;;;;4973615;28;20031;-73
2022/07/25 06:30:12;;;;;;;3.33;2.00;;;22.20;99.90;;;;;;4972652;28;20019;-72
2022/07/25 06:32:38;;;;;;;5.10;2.95;;;22.30;99.90;;;;;;4973420;28;20345;-74
2022/07/25 06:35:04;;;;;;;4.82;2.60;;;22.50;99.90;;;;;;4957254;28;20042;-71
2022/07/25 06:37:29;;;;;;;3.95;2.83;;;22.60;99.90;;;;;;4975918;28;20033;-71
2022/07/25 06:39:55;;;;;;;5.80;2.88;;;22.70;99.90;;;;;;4975377;28;20084;-71
2022/07/25 06:42:21;;;;;;;4.13;2.55;;;22.80;99.90;;;;;;4975301;28;20030;-72
2022/07/25 06:44:46;;;;;;;9.63;3.10;;;22.90;99.90;;;;;;4976589;28;20054;-73
2022/07/25 06:47:15;;;;;;;6.13;2.97;;;23.10;99.90;;;;;;4976243;28;20058;-72
2022/07/25 06:49:41;;;;;;;4.68;2.42;;;23.10;99.90;;;;;;4960273;28;20043;-74
2022/07/25 06:52:07;;;;;;;7.22;2.47;;;23.30;99.90;;;;;;4976058;28;20023;-73
2022/07/25 06:54:33;;;;;;;12.95;2.63;;;23.40;99.90;;;;;;4975725;28;20046;-75
2022/07/25 06:56:59;;;;;;;4.28;2.63;;;23.50;99.90;;;;;;4976206;28;20039;-73
2022/07/25 06:59:25;;;;;;;8.10;2.90;;;23.60;99.90;;;;;;4959578;28;20113;-73
2022/07/25 07:01:50;;;;;;;3.33;2.28;;;23.80;99.90;;;;;;4976640;28;20391;-74
2022/07/25 07:04:16;;;;;;;3.33;2.00;;;23.90;99.90;;;;;;4976100;28;20321;-70
2022/07/25 07:06:42;;;;;;;5.50;2.72;;;24.00;99.90;;;;;;4958087;28;20090;-72
2022/07/25 07:09:08;;;;;;;3.58;2.30;;;24.20;99.90;;;;;;4975764;28;20038;-73
2022/07/25 07:11:34;;;;;;;7.93;2.90;;;24.40;99.90;;;;;;4976298;28;20043;-75
2022/07/25 07:14:03;;;;;;;6.10;3.00;;;24.60;99.90;;;;;;4975946;28;20062;-74
2022/07/25 07:16:29;;;;;;;3.47;2.15;;;24.70;99.90;;;;;;4977089;28;20116;-76
2022/07/25 07:18:56;;;;;;;5.55;1.80;;;24.80;99.90;;;;;;4976029;28;20023;-72
2022/07/25 07:21:22;;;;;;;4.88;2.55;;;24.90;99.90;;;;;;4975409;28;20035;-75
2022/07/25 07:23:47;;;;;;;5.55;2.70;;;25.10;99.90;;;;;;4958871;28;20034;-74
2022/07/25 07:26:13;;;;;;;5.90;2.38;;;25.10;99.90;;;;;;4974902;28;20038;-71
2022/07/25 07:28:39;;;;;;;5.38;2.90;;;25.20;99.90;;;;;;4976127;28;20777;-72
2022/07/25 07:31:05;;;;;;;5.70;3.05;;;25.10;99.90;;;;;;4974513;28;20087;-76
2022/07/25 07:33:34;;;;;;;4.15;2.30;;;25.20;99.90;;;;;;4974411;28;20035;-75
2022/07/25 07:36:01;;;;;;;5.88;2.42;;;25.20;99.90;;;;;;4974968;28;20038;-75
2022/07/25 07:38:26;;;;;;;4.25;2.45;;;25.30;99.90;;;;;;4974663;28;20058;-73
2022/07/25 07:40:52;;;;;;;3.53;2.05;;;25.30;99.90;;;;;;4975076;28;20027;-72
2022/07/25 07:43:19;;;;;;;4.55;2.28;;;25.40;99.90;;;;;;4975336;28;20037;-76
2022/07/25 07:45:44;;;;;;;7.15;2.60;;;25.40;99.90;;;;;;4956549;28;20031;-73
2022/07/25 07:48:10;;;;;;;4.40;2.55;;;25.40;99.90;;;;;;4975710;28;20047;-73
2022/07/25 07:50:36;;;;;;;5.60;2.90;;;25.30;99.90;;;;;;4974646;28;20025;-73
2022/07/25 07:53:01;;;;;;;3.17;1.98;;;25.40;99.90;;;;;;4959226;28;20031;-74
2022/07/25 07:55:42;;;;;;;3.10;2.22;;;25.40;99.90;;;;;;4975112;28;20086;-73
2022/07/25 07:58:09;;;;;;;4.90;2.42;;;25.30;99.90;;;;;;4976422;28;20022;-74
2022/07/25 08:00:38;;;;;;;5.35;2.25;;;25.40;99.90;;;;;;4975499;28;20030;-73
2022/07/25 08:03:07;;;;;;;4.55;2.22;;;25.50;99.90;;;;;;4957362;28;20027;-74
2022/07/25 08:05:42;;;;;;;8.68;2.90;;;25.50;99.90;;;;;;4973620;28;20038;-75
2022/07/25 08:08:09;;;;;;;3.70;2.28;;;25.60;99.90;;;;;;4974425;28;20070;-74
2022/07/25 08:10:38;;;;;;;4.65;2.15;;;25.70;99.90;;;;;;4973584;28;20086;-72
2022/07/25 08:13:26;;;;;;;14.10;3.45;;;25.70;99.90;;;;;;4975691;28;20054;-74
2022/07/25 08:15:56;;;;;;;7.22;2.92;;;25.70;99.90;;;;;;4975894;28;20471;-77
2022/07/25 08:18:22;;;;;;;5.10;2.78;;;25.80;99.90;;;;;;4975622;28;20027;-74
2022/07/25 08:20:49;;;;;;;3.25;2.15;;;25.90;99.90;;;;;;4973434;28;20031;-76
2022/07/25 08:23:15;;;;;;;4.72;2.85;;;26.00;99.90;;;;;;4973700;28;20665;-76
2022/07/25 08:25:42;;;;;;;3.60;2.35;;;26.20;99.90;;;;;;4974406;28;20826;-75
2022/07/25 08:28:07;;;;;;;20.08;2.38;;;26.20;99.90;;;;;;4973962;28;20099;-73
2022/07/25 08:30:35;;;;;;;3.90;2.10;;;26.30;99.90;;;;;;4972873;28;20082;-71
2022/07/25 08:33:03;;;;;;;7.50;2.33;;;26.40;99.90;;;;;;4973870;28;20031;-76
2022/07/25 08:35:30;;;;;;;5.13;2.47;;;26.40;99.90;;;;;;4974713;28;20041;-73
2022/07/25 08:37:57;;;;;;;4.20;2.22;;;26.40;99.90;;;;;;4973129;28;20054;-73
2022/07/25 08:40:25;;;;;;;4.30;2.33;;;26.50;99.90;;;;;;4955018;28;20042;-75
2022/07/25 08:42:53;;;;;;;5.20;2.50;;;26.60;99.90;;;;;;4972406;28;20038;-75
2022/07/25 08:45:20;;;;;;;4.22;2.15;;;26.60;99.90;;;;;;4974139;28;20023;-76
2022/07/25 08:47:47;;;;;;;4.25;2.45;;;26.70;99.90;;;;;;4956548;28;20024;-79
2022/07/25 08:50:18;;;;;;;8.05;2.72;;;26.70;99.90;;;;;;4975576;28;20058;-74
2022/07/25 08:52:46;;;;;;;4.78;2.72;;;26.70;99.90;;;;;;4973303;28;20119;-73
2022/07/25 08:55:15;;;;;;;5.97;2.63;;;26.70;99.90;;;;;;4974304;28;20054;-73
2022/07/25 08:57:42;;;;;;;3.70;2.10;;;26.70;99.90;;;;;;4958280;28;20397;-73
2022/07/25 09:00:11;;;;;;;4.00;2.42;;;26.70;99.90;;;;;;4973972;28;20039;-75
2022/07/25 09:02:37;;;;;;;7.50;2.60;;;26.80;99.90;;;;;;4956428;28;20093;-81
2022/07/25 09:05:03;;;;;;;5.25;2.65;;;26.90;99.90;;;;;;4972125;28;20031;-74
2022/07/25 09:07:40;;;;;;;4.63;2.38;;;27.10;99.90;;;;;;4972905;28;20027;-75
2022/07/25 09:10:15;;;;;;;3.40;2.20;;;27.40;99.90;;;;;;4956960;28;20547;-76
2022/07/25 09:12:49;;;;;;;4.32;2.53;;;27.60;99.90;;;;;;4973386;28;21087;-75
2022/07/25 09:15:28;;;;;;;12.68;3.17;;;27.70;99.90;;;;;;4973561;28;20038;-76
2022/07/25 09:17:54;;;;;;;4.43;2.25;;;27.90;99.90;;;;;;4974072;28;20038;-74
2022/07/25 09:20:20;;;;;;;2.55;2.15;;;27.90;99.90;;;;;;4972951;28;20055;-75
2022/07/25 09:22:49;;;;;;;3.22;2.35;;;27.90;99.90;;;;;;4975787;28;20498;-79
2022/07/25 09:25:23;;;;;;;2.85;1.85;;;28.00;99.90;;;;;;4957792;28;20034;-77
2022/07/25 09:27:49;;;;;;;12.48;2.65;;;28.10;99.90;;;;;;4973077;28;20022;-79
2022/07/25 09:30:15;;;;;;;2.08;1.67;;;28.20;99.90;;;;;;4974771;28;20101;-76
2022/07/25 09:32:41;;;;;;;4.05;2.47;;;28.30;99.90;;;;;;4973655;28;20027;-78
2022/07/25 09:35:07;;;;;;;6.47;3.17;;;28.30;99.90;;;;;;4955337;28;20070;-76
2022/07/25 09:37:33;;;;;;;3.33;2.20;;;28.30;99.90;;;;;;4974123;28;20431;-81
2022/07/25 09:39:59;;;;;;;5.15;2.05;;;28.20;99.90;;;;;;4973335;28;20027;-78
2022/07/25 09:42:31;;;;;;;5.53;2.75;;;28.30;99.90;;;;;;4971918;28;20024;-76
2022/07/25 09:45:02;;;;;;;4.68;2.47;;;28.20;99.90;;;;;;4955841;28;20019;-74
2022/07/25 09:47:29;;;;;;;3.35;2.05;;;28.30;99.90;;;;;;4967566;28;20038;-77
2022/07/25 09:50:05;;;;;;;10.13;3.17;;;28.30;99.90;;;;;;4955343;28;20202;-75
2022/07/25 09:52:30;;;;;;;3.95;2.45;;;28.40;99.90;;;;;;4973980;28;20041;-79
2022/07/25 09:54:56;;;;;;;3.47;1.85;;;28.60;99.90;;;;;;4955357;28;20117;-71
2022/07/25 09:57:25;;;;;;;5.10;2.47;;;28.90;99.90;;;;;;4972998;28;20038;-77
2022/07/25 09:59:50;;;;;;;4.15;2.20;;;29.10;99.90;;;;;;4956090;28;20023;-73
2022/07/25 10:02:39;;;;;;;3.47;2.03;;;29.30;99.90;;;;;;4974062;28;20019;-73
2022/07/25 10:05:33;;;;;;;6.43;2.20;;;29.50;99.90;;;;;;4973718;28;20027;-74
2022/07/25 10:08:04;;;;;;;7.10;2.33;;;29.80;99.90;;;;;;4972509;28;20043;-74
2022/07/25 10:10:37;;;;;;;7.90;2.30;;;29.80;99.90;;;;;;4975921;28;20023;-74
2022/07/25 10:13:12;;;;;;;2.63;1.80;;;29.90;99.90;;;;;;4977074;28;20472;-75
2022/07/25 10:15:49;;;;;;;3.45;1.77;;;29.90;99.90;;;;;;4958621;28;20057;-73
2022/07/25 10:18:17;;;;;;;3.33;2.38;;;29.90;99.90;;;;;;4977013;28;20038;-71
2022/07/25 10:20:44;;;;;;;6.13;2.55;;;29.90;99.90;;;;;;4976802;28;20521;-77
2022/07/25 10:23:39;;;;;;;3.38;2.20;;;29.90;99.90;;;;;;4975931;28;20053;-72
2022/07/25 10:26:15;;;;;;;8.25;1.83;;;30.00;99.90;;;;;;4945505;28;20050;-71
2022/07/25 10:28:46;;;;;;;4.43;2.33;;;30.10;99.90;;;;;;4975778;28;20035;-70
2022/07/25 10:31:37;;;;;;;4.63;2.22;;;30.30;99.90;;;;;;4975868;28;20023;-72
2022/07/25 10:34:05;;;;;;;2.33;1.80;;;30.30;99.90;;;;;;4975980;28;20113;-71
2022/07/25 10:36:50;;;;;;;4.20;2.33;;;30.30;99.90;;;;;;4957989;28;20082;-78
2022/07/25 10:39:17;;;;;;;2.47;1.88;;;30.20;99.90;;;;;;4976086;28;20042;-72
2022/07/25 10:41:50;;;;;;;11.48;2.22;;;30.20;99.90;;;;;;4976932;28;20073;-69
2022/07/25 10:44:16;;;;;;;2.60;2.08;;;30.20;99.90;;;;;;4973567;28;20030;-72
2022/07/25 10:46:43;;;;;;;5.45;2.13;;;30.10;99.90;;;;;;4975580;28;20066;-71
2022/07/25 10:49:20;;;;;;;4.40;1.67;;;30.10;99.90;;;;;;4977124;28;20430;-73
2022/07/25 10:54:38;;;;;;;5.45;2.17;;;30.10;99.90;;;;;;4880763;23;20532;-73
2022/07/25 10:57:05;;;;;;;4.57;2.53;;;30.10;99.90;;;;;;4986876;28;20047;-71
2022/07/25 10:59:35;;;;;;;2.83;2.05;;;30.10;99.90;;;;;;4989001;28;20093;-72
2022/07/25 11:02:02;;;;;;;3.78;2.00;;;30.20;99.90;;;;;;4986951;28;20070;-72
2022/07/25 11:04:31;;;;;;;4.90;1.88;;;30.40;99.90;;;;;;4993177;28;20037;-72
2022/07/25 11:07:10;;;;;;;3.33;2.20;;;30.50;99.90;;;;;;4993786;28;20126;-74
2022/07/25 11:09:37;;;;;;;2.40;1.92;;;30.60;99.90;;;;;;4995059;28;20038;-72
2022/07/25 11:12:02;;;;;;;2.85;1.90;;;30.70;99.90;;;;;;4994452;28;20161;-73
2022/07/25 11:14:36;;;;;;;5.10;2.00;;;30.70;99.90;;;;;;4995357;28;20022;-75
2022/07/25 11:17:14;;;;;;;3.75;2.13;;;30.70;99.90;;;;;;4994409;28;20501;-75
2022/07/25 11:19:42;;;;;;;3.10;1.60;;;30.60;99.90;;;;;;4994269;28;20030;-74
2022/07/25 11:22:08;;;;;;;4.65;2.05;;;30.50;99.90;;;;;;4993629;28;20023;-72
2022/07/25 11:24:40;;;;;;;11.63;1.85;;;30.40;99.90;;;;;;4994747;28;20109;-71
2022/07/25 11:27:07;;;;;;;6.75;2.63;;;30.40;99.90;;;;;;4992870;28;20036;-70
2022/07/25 11:29:33;;;;;;;4.82;2.28;;;30.40;99.90;;;;;;4994664;28;20034;-71
2022/07/25 11:32:07;;;;;;;4.75;2.58;;;30.30;99.90;;;;;;4994642;28;20043;-72
2022/07/25 11:34:36;;;;;;;2.17;1.83;;;30.30;99.90;;;;;;4994531;28;20026;-72
2022/07/25 11:37:05;;;;;;;2.35;1.80;;;30.50;99.90;;;;;;4977085;28;20018;-75
2022/07/25 11:39:33;;;;;;;6.55;2.30;;;30.70;99.90;;;;;;4992522;28;20125;-70
2022/07/25 11:42:02;;;;;;;3.20;2.47;;;31.00;99.90;;;;;;4993209;28;20022;-74
2022/07/25 11:44:32;;;;;;;3.13;2.08;;;31.00;99.90;;;;;;4976888;28;20045;-70
2022/07/25 11:46:58;;;;;;;4.70;2.22;;;30.80;99.90;;;;;;4993957;28;20066;-70
2022/07/25 11:49:23;;;;;;;2.67;2.22;;;30.60;99.90;;;;;;4994763;28;20035;-73
2022/07/25 11:51:49;;;;;;;4.55;2.53;;;30.40;99.90;;;;;;4993813;28;20560;-73
2022/07/25 11:54:15;;;;;;;3.50;2.03;;;30.20;99.90;;;;;;4993942;28;20026;-71
2022/07/25 11:56:42;;;;;;;3.50;2.13;;;30.10;99.90;;;;;;4993844;28;20057;-74
2022/07/25 11:59:08;;;;;;;3.33;2.25;;;30.00;99.90;;;;;;4994625;28;20034;-72
2022/07/25 12:01:40;;;;;;;5.72;2.80;;;29.90;99.90;;;;;;4994224;28;20026;-77
2022/07/25 12:04:17;;;;;;;5.53;2.45;;;29.90;99.90;;;;;;4994158;28;20043;-72
2022/07/25 12:06:48;;;;;;;4.75;2.58;;;29.90;99.90;;;;;;4977124;28;20045;-72
2022/07/25 12:09:19;;;;;;;2.25;1.83;;;29.90;99.90;;;;;;4993671;28;20050;-72
2022/07/25 12:11:46;;;;;;;3.67;1.80;;;30.00;99.90;;;;;;4994489;28;20027;-72
2022/07/25 12:14:12;;;;;;;5.60;2.67;;;30.10;99.90;;;;;;4994246;28;20057;-74
2022/07/25 12:16:38;;;;;;;4.13;2.33;;;30.30;99.90;;;;;;4993403;28;20018;-71
2022/07/25 12:19:08;;;;;;;3.60;2.40;;;30.40;99.90;;;;;;4994274;28;20054;-75
2022/07/25 12:21:34;;;;;;;4.43;2.30;;;30.40;99.90;;;;;;4993961;28;20015;-76
2022/07/25 12:24:00;;;;;;;9.00;2.22;;;30.40;99.90;;;;;;4976891;28;20023;-71
2022/07/25 12:26:26;;;;;;;9.23;2.25;;;30.40;99.90;;;;;;4993528;28;20035;-73
2022/07/25 12:28:51;;;;;;;3.42;2.20;;;30.40;99.90;;;;;;4993927;28;20042;-70
2022/07/25 12:31:17;;;;;;;5.18;2.35;;;30.40;99.90;;;;;;4994305;28;20057;-76
2022/07/25 12:33:43;;;;;;;5.53;2.58;;;30.40;99.90;;;;;;4973071;28;20048;-73
2022/07/25 12:36:12;;;;;;;4.10;2.65;;;30.40;99.90;;;;;;4993642;28;20053;-74
2022/07/25 12:38:37;;;;;;;5.20;2.65;;;30.40;99.90;;;;;;4993948;28;20023;-71
2022/07/25 12:41:03;;;;;;;4.75;2.45;;;30.50;99.90;;;;;;4993555;28;20037;-73
2022/07/25 12:43:28;;;;;;;4.93;3.00;;;30.60;99.90;;;;;;4974115;28;20027;-73
2022/07/25 12:45:54;;;;;;;4.13;2.30;;;30.70;99.90;;;;;;4994078;28;20066;-74
2022/07/25 12:48:20;;;;;;;5.95;2.30;;;30.80;99.90;;;;;;4975689;28;20030;-75